Flight Track Log - Related Links

Times and Time Zones

All times are in EDT time to prevent confusion due to time zone crossing. See the N820NN flight status page for this flight to view local times or setup timezone preferences in your user account.

Time Position Orientation Groundspeed Altitude Reporting Facility
EDT Latitude Longitude Course Direction KTS MPH feet Rate Location/Type
Sun 11:28:15 AM 32.8665 -97.0318 167° South  Level FlightAware Approximate
Sun 11:29:15 AM 32.8410 -96.8875 244° Southwest  Level FlightAware Approximate
Sun 11:30:15 AM 32.8154 -96.7432 264° West  Level FlightAware Approximate
Sun 11:31:11 AM 32.7911 -97.0106 99° East 200 230 5,900  Level Fort Worth Center
Sun 11:32:11 AM 32.7781 -96.9167 92° East 261 300 8,900 2,700 Climbing Fort Worth Center
Sun 11:33:11 AM 32.7756 -96.8131 92° East 288 331 11,300 2,550 Climbing Fort Worth Center
Sun 11:34:11 AM 32.7708 -96.6797 92° East 346 398 14,000 2,600 Climbing Fort Worth Center
Sun 11:35:11 AM 32.7678 -96.5611 92° East 383 441 16,500 2,704 Climbing Fort Worth Center
Sun 11:36:33 AM 32.7615 -96.3493 95° East 427 491 20,400 2,831 Climbing FlightAware ADS-B
Sun 11:36:40 AM 32.7603 -96.3333 99° East 428 493 20,700 2,538 Climbing FlightAware ADS-B
Sun 11:36:59 AM 32.7547 -96.2912 133° Southeast 429 494 21,500 1,742 Climbing FlightAware ADS-B
Sun 11:37:11 AM 32.7533 -96.2894 100° East 412 474 21,600 1,756 Climbing Fort Worth Center
Sun 11:39:02 AM 32.7085 -95.9979 101° East 449 517 25,100 1,846 Climbing FlightAware ADS-B
Sun 11:39:34 AM 32.6963 -95.9214 101° East 455 524 26,000 1,594 Climbing FlightAware ADS-B
Sun 11:40:06 AM 32.6835 -95.8412 101° East 464 534 26,800 1,545 Climbing FlightAware ADS-B
Sun 11:40:40 AM 32.6696 -95.7538 96° East 472 543 27,700 1,537 Climbing FlightAware ADS-B
Sun 11:41:28 AM 32.6590 -95.6299 86° East 482 555 28,900 1,689 Climbing FlightAware ADS-B
Sun 11:42:23 AM 32.6686 -95.4832 84° East 481 554 30,600 1,631 Climbing FlightAware ADS-B
Sun 11:43:11 AM 32.6789 -95.3647 86° East 478 550 31,700 1,447 Climbing Fort Worth Center
Sun 11:44:44 AM 32.6935 -95.1080 86° East 487 560 34,000 1,415 Climbing FlightAware ADS-B
Sun 11:45:14 AM 32.6988 -95.0273 89° East 487 560 34,600 1,171 Climbing FlightAware ADS-B
Sun 11:46:06 AM 32.7016 -94.8895 111° Southeast 492 566 35,600 1,050 Climbing FlightAware ADS-B
Sun 11:46:34 AM 32.6788 -94.8207 124° Southeast 487 560 36,000 1,082 Climbing FlightAware ADS-B
Sun 11:47:07 AM 32.6374 -94.7466 123° Southeast 486 559 36,700 1,167 Climbing FlightAware ADS-B
Sun 11:47:46 AM 32.5895 -94.6602 123° Southeast 486 559 37,400 1,099 Climbing FlightAware ADS-B
Sun 11:48:18 AM 32.5503 -94.5895 123° Southeast 482 555 38,000 1,048 Climbing FlightAware ADS-B
Sun 11:48:49 AM 32.5125 -94.5215 123° Southeast 481 554 38,500 833 Climbing FlightAware ADS-B
Sun 11:49:30 AM 32.4628 -94.4321 123° Southeast 480 552 39,000 423 Climbing FlightAware ADS-B
Sun 11:50:00 AM 32.4259 -94.3645 123° Southeast 482 555 39,000  Level FlightAware ADS-B
Sun 11:50:36 AM 32.3826 -94.2843 123° Southeast 483 556 39,000  Level FlightAware ADS-B
Sun 11:51:07 AM 32.3457 -94.2166 124° Southeast 482 555 39,000  Level FlightAware ADS-B
Sun 11:51:37 AM 32.3080 -94.1509 124° Southeast 482 555 39,000  Level FlightAware ADS-B
Sun 11:52:07 AM 32.2705 -94.0857 124° Southeast 481 554 39,000  Level FlightAware ADS-B
Sun 11:52:38 AM 32.2321 -94.0181 124° Southeast 481 554 39,000  Level FlightAware ADS-B
Sun 11:53:13 AM 32.1888 -93.9417 124° Southeast 482 555 39,000  Level FlightAware ADS-B
Sun 11:53:44 AM 32.1508 -93.8749 124° Southeast 480 552 39,000  Level FlightAware ADS-B
Sun 11:54:15 AM 32.1127 -93.8079 124° Southeast 480 552 39,000  Level FlightAware ADS-B
Sun 11:54:51 AM 32.0675 -93.7283 122° Southeast 479 551 39,000  Level FlightAware ADS-B
Sun 11:55:04 AM 32.0533 -93.7013 116° Southeast 480 552 39,000  Level FlightAware ADS-B
Sun 11:55:22 AM 32.0353 -93.6587 115° Southeast 481 554 39,000  Level FlightAware ADS-B
Sun 11:56:07 AM 31.9935 -93.5507 119° Southeast 481 554 39,000  Level FlightAware ADS-B
Sun 11:56:38 AM 31.9656 -93.4906 113° Southeast 473 544 39,000  Level Houston Center
Sun 11:57:39 AM 31.9078 -93.3333 115° Southeast 480 552 39,000  Level FlightAware ADS-B
Sun 11:58:20 AM 31.8699 -93.2370 115° Southeast 478 550 39,000  Level FlightAware ADS-B
Sun 11:58:55 AM 31.8376 -93.1556 115° Southeast 478 550 39,000  Level FlightAware ADS-B
Sun 11:59:27 AM 31.8076 -93.0802 115° Southeast 479 551 39,000  Level FlightAware ADS-B
Sun 11:59:58 AM 31.7787 -93.0075 115° Southeast 479 551 39,000  Level FlightAware ADS-B
Sun 12:00:48 PM 31.7319 -92.8903 115° Southeast 479 551 39,000  Level FlightAware ADS-B
Sun 12:01:32 PM 31.6902 -92.7859 115° Southeast 477 549 39,000  Level FlightAware ADS-B
Sun 12:02:02 PM 31.6621 -92.7159 117° Southeast 476 548 39,000 -91 Level FlightAware ADS-B
Sun 12:02:38 PM 31.6364 -92.6556 115° Southeast 468 539 38,900  Descending Houston Center
Sun 12:03:41 PM 31.5696 -92.4864 115° Southeast 476 548 39,000 41 Climbing FlightAware ADS-B
Sun 12:05:04 PM 31.4924 -92.2958 116° Southeast 472 543 39,000  Level FlightAware ADS-B
Sun 12:05:42 PM 31.4572 -92.2094 116° Southeast 469 540 39,000  Level FlightAware ADS-B
Sun 12:06:40 PM 31.4048 -92.0809 116° Southeast 469 540 39,000  Level FlightAware ADS-B
Sun 12:07:38 PM 31.3561 -91.9650 115° Southeast 473 544 39,000  Level Houston Center
Sun 12:08:38 PM 31.3000 -91.8264 116° Southeast 473 544 39,000  Level Houston Center
Sun 12:09:38 PM 31.2436 -91.6903 116° Southeast 468 539 39,000  Level Houston Center
Sun 12:10:38 PM 31.1853 -91.5519 116° Southeast 468 539 39,000  Level Houston Center
Sun 12:11:38 PM 31.1267 -91.4114 116° Southeast 468 539 39,000  Level Houston Center
Sun 12:12:38 PM 31.0722 -91.2806 116° Southeast 468 539 39,000  Level Houston Center
Sun 12:13:38 PM 31.0153 -91.1428 116° Southeast 468 539 39,000 -50 Level Houston Center
Sun 12:14:38 PM 30.9583 -91.0072 116° Southeast 468 539 38,900  Descending Houston Center
Sun 12:15:38 PM 30.9014 -90.8697 117° Southeast 468 539 39,000  Climbing Houston Center
Sun 12:16:38 PM 30.8442 -90.7372 117° Southeast 468 539 38,900  Descending Houston Center
Sun 12:17:38 PM 30.7847 -90.6025 116° Southeast 468 539 39,000 50 Climbing Houston Center
Sun 12:18:38 PM 30.7272 -90.4678 116° Southeast 468 539 39,000  Level Houston Center
Sun 12:19:38 PM 30.6717 -90.3331 117° Southeast 468 539 39,000  Level Houston Center
Sun 12:20:38 PM 30.6139 -90.2011 117° Southeast 468 539 39,000  Level Houston Center
Sun 12:21:38 PM 30.5561 -90.0669 116° Southeast 468 539 39,000  Level Houston Center
Sun 12:22:38 PM 30.4981 -89.9306 116° Southeast 468 539 39,000  Level Houston Center
Sun 12:23:38 PM 30.4356 -89.7822 116° Southeast 463 533 39,000  Level Houston Center
Sun 12:24:38 PM 30.3750 -89.6414 117° Southeast 470 541 39,000  Level Houston Center
Sun 12:25:38 PM 30.3144 -89.5056 117° Southeast 470 541 39,000  Level Houston Center
Sun 12:26:38 PM 30.2561 -89.3722 118° Southeast 470 541 39,000 -50 Level Houston Center
Sun 12:27:38 PM 30.1953 -89.2389 117° Southeast 470 541 38,900 -50 Descending Houston Center
Sun 12:28:38 PM 30.1364 -89.1058 116° Southeast 470 541 38,900 50 Level Houston Center
Sun 12:29:38 PM 30.0797 -88.9728 117° Southeast 465 535 39,000 50 Climbing Houston Center
Sun 12:30:38 PM 30.0206 -88.8400 118° Southeast 465 535 39,000  Level Houston Center
Sun 12:34:34 PM 29.7836 -88.3217 118° Southeast 451 519 39,000  Level Jacksonville Center
Sun 12:35:34 PM 29.7244 -88.1917 117° Southeast 472 543 39,000  Level Jacksonville Center
Sun 12:36:34 PM 29.6653 -88.0569 117° Southeast 467 537 39,000  Level Jacksonville Center
Sun 12:37:34 PM 29.6078 -87.9275 118° Southeast 467 537 39,000  Level Jacksonville Center
Sun 12:38:34 PM 29.5461 -87.7953 117° Southeast 467 537 39,000  Level Jacksonville Center
Sun 12:39:34 PM 29.4864 -87.6636 118° Southeast 467 537 39,000  Level Jacksonville Center
Sun 12:40:34 PM 29.4264 -87.5344 117° Southeast 467 537 39,000  Level Jacksonville Center
Sun 12:41:34 PM 29.3764 -87.4225 118° Southeast 452 520 39,000  Level Jacksonville Center
Sun 12:42:34 PM 29.3161 -87.2911 117° Southeast 452 520 39,000 -50 Level Jacksonville Center
Sun 12:43:34 PM 29.2578 -87.1622 119° Southeast 458 527 38,900 -50 Descending Jacksonville Center
Sun 12:44:34 PM 29.1956 -87.0311 119° Southeast 458 527 38,900 50 Level Jacksonville Center
Sun 12:45:34 PM 29.1269 -86.8881 118° Southeast 465 535 39,000 50 Climbing Jacksonville Center
Sun 12:46:34 PM 29.0664 -86.7575 118° Southeast 465 535 39,000  Level Jacksonville Center
Sun 12:47:34 PM 29.0056 -86.6269 118° Southeast 465 535 39,000  Level Jacksonville Center
Sun 12:48:34 PM 28.9444 -86.4964 119° Southeast 465 535 39,000  Level Jacksonville Center
Sun 12:49:34 PM 28.8833 -86.3708 118° Southeast 460 529 39,000 -50 Level Jacksonville Center
Sun 12:50:34 PM 28.8219 -86.2408 118° Southeast 465 535 38,900 -50 Descending Jacksonville Center
Sun 12:51:34 PM 28.7606 -86.1111 119° Southeast 465 535 38,900  Level Jacksonville Center
Sun 12:52:34 PM 28.6992 -85.9836 119° Southeast 465 535 38,900 50 Level Jacksonville Center
Sun 12:53:34 PM 28.6394 -85.8611 119° Southeast 459 528 39,000 29 Climbing Jacksonville Center
Sun 12:56:01 PM 28.4908 -85.5581 119° Southeast 475 547 39,000 -29 Level Miami Center
Sun 12:57:01 PM 28.4317 -85.4358 118° Southeast 461 531 38,900 -50 Descending Miami Center
Sun 12:58:01 PM 28.3725 -85.3086 119° Southeast 461 531 38,900 50 Level Miami Center
Sun 12:59:01 PM 28.3131 -85.1889 119° Southeast 461 531 39,000  Climbing Miami Center
Sun 01:00:01 PM 28.2514 -85.0644 119° Southeast 461 531 38,900  Descending Miami Center
Sun 01:01:01 PM 28.1897 -84.9397 118° Southeast 461 531 39,000 50 Climbing Miami Center
Sun 01:02:01 PM 28.1319 -84.8181 119° Southeast 456 525 39,000 -50 Level Miami Center
Sun 01:03:01 PM 28.0719 -84.6964 120° Southeast 456 525 38,900  Descending Miami Center
Sun 01:04:01 PM 28.0117 -84.5772 120° Southeast 450 518 39,000 50 Climbing Miami Center
Sun 01:05:01 PM 27.9419 -84.4411 118° Southeast 450 518 39,000 -233 Level Miami Center
Sun 01:07:01 PM 27.8275 -84.1942 121° Southeast 450 518 38,300 -533 Descending Miami Center
Sun 01:08:01 PM 27.7628 -84.0728 119° Southeast 440 506 37,400 -950 Descending Miami Center
Sun 01:09:01 PM 27.7042 -83.9519 118° Southeast 447 514 36,400 -950 Descending Miami Center
Sun 01:10:01 PM 27.6475 -83.8314 120° Southeast 447 514 35,500 -700 Descending Miami Center
Sun 01:11:01 PM 27.5864 -83.7131 119° Southeast 435 501 35,000 -250 Descending Miami Center
Sun 01:12:01 PM 27.5275 -83.5925 119° Southeast 435 501 35,000  Level Miami Center
Sun 01:13:01 PM 27.4683 -83.4744 120° Southeast 435 501 35,000 -400 Level Miami Center
Sun 01:14:01 PM 27.4089 -83.3567 119° Southeast 435 501 34,200 -900 Descending Miami Center
Sun 01:15:01 PM 27.3497 -83.2342 119° Southeast 435 501 33,200 -950 Descending Miami Center
Sun 01:16:01 PM 27.2906 -83.1117 121° Southeast 435 501 32,300 -1,150 Descending Miami Center
Sun 01:17:01 PM 27.2267 -82.9917 118° Southeast 435 501 30,900 -1,550 Descending Miami Center
Sun 01:18:01 PM 27.1731 -82.8792 121° Southeast 444 511 29,200 -1,400 Descending Miami Center
Sun 01:19:01 PM 27.1072 -82.7544 119° Southeast 454 522 28,100 -1,000 Descending Miami Center
Sun 01:20:01 PM 27.0456 -82.6278 125° Southeast 454 522 27,200 -950 Descending Miami Center
Sun 01:21:01 PM 26.9731 -82.5103 128° Southeast 459 528 26,200 -1,050 Descending Miami Center
Sun 01:22:01 PM 26.8919 -82.3944 127° Southeast 466 536 25,100 -1,100 Descending Miami Center
Sun 01:23:01 PM 26.8167 -82.2839 123° Southeast 460 529 24,000 -600 Descending Miami Center
Sun 01:24:01 PM 26.7500 -82.1692 120° Southeast 453 521 23,900 -550 Descending Miami Center
Sun 01:25:01 PM 26.6894 -82.0528 122° Southeast 443 510 22,900 -1,000 Descending Miami Center
Sun 01:26:01 PM 26.6286 -81.9431 120° Southeast 433 498 21,900 -1,300 Descending Miami Center
Sun 01:27:01 PM 26.5700 -81.8292 121° Southeast 422 486 20,300 -1,600 Descending Miami Center
Sun 01:28:01 PM 26.5131 -81.7222 121° Southeast 417 480 18,700 -1,700 Descending Miami Center
Sun 01:29:01 PM 26.4542 -81.6108 122° Southeast 399 459 16,900 -1,600 Descending Miami Center
Sun 01:30:01 PM 26.4008 -81.5161 119° Southeast 378 435 15,500 -1,600 Descending Miami Center
Sun 01:31:01 PM 26.3556 -81.4261 122° Southeast 356 410 13,700 -1,800 Descending Miami Center
Sun 01:32:01 PM 26.3083 -81.3411 122° Southeast 334 384 11,900 -1,750 Descending Miami Center
Sun 01:33:01 PM 26.2628 -81.2583 121° Southeast 321 369 10,200 -1,300 Descending Miami Center
Sun 01:34:01 PM 26.2192 -81.1778 129° Southeast 311 358 9,300 -1,067 Descending Miami Center
Sun 01:34:31 PM 26.1950 -81.1447 115° Southeast 294 338 8,600 -1,100 Descending Miami Center
Sun 01:35:01 PM 26.1794 -81.1069 125° Southeast 297 342 8,200 -424 Descending Miami Center
Sun 01:35:56 PM 26.1394 -81.0431 116° Southeast 267 307 8,000 -150 Descending Miami Center
Sun 01:37:01 PM 26.1061 -80.9656 110° East 268 308 7,900 -414 Descending Miami Center
Sun 01:37:52 PM 26.0850 -80.9003 94° East 263 303 7,200 -1,000 Descending Miami Center
Sun 01:39:01 PM 26.0792 -80.8119 92° East 253 291 5,900 -563 Descending Miami Center
Sun 01:40:00 PM 26.0767 -80.7450 86° East 209 241 6,000  Climbing Miami Center
Sun 01:41:01 PM 26.0806 -80.6850 96° East 206 237 5,900  Descending Miami Center
Sun 01:42:08 PM 26.0756 -80.6292 85° East 161 185 6,000  Climbing Miami Center
Sun 01:43:01 PM 26.0789 -80.5856 92° East 161 185 5,900 -106 Descending Miami Center
Sun 01:44:01 PM 26.0778 -80.5414 92° East 161 185 5,800 -745 Descending Miami Center
Sun 01:45:18 PM 26.0753 -80.4767 91° East 156 180 4,200 -1,087 Descending Miami Center
Sun 01:46:19 PM 26.0744 -80.4303 88° East 152 175 3,300 -787 Descending Miami Center
Sun 01:47:20 PM 26.0756 -80.3842 88° East 140 161 2,600 -639 Descending Miami Center
Sun 01:48:21 PM 26.0767 -80.3381 89° East 147 169 2,000 -410 Descending Miami Center
Sun 01:49:17 PM 26.0775 -80.3008 89° East 128 147 1,800 -214 Descending Miami Center

Login

Don't have an account? Register now (free) for customized features, flight alerts, and more!